createdAt,value
2022-11-02T00:01:52.610Z,5.30
2022-11-02T00:04:26.490Z,5.10
2022-11-02T00:06:53.541Z,5.35
2022-11-02T00:09:27.544Z,5.28
2022-11-02T00:11:54.605Z,5.20
2022-11-02T00:14:28.530Z,6.05
2022-11-02T00:16:55.836Z,6.00
2022-11-02T00:19:29.586Z,5.43
2022-11-02T00:22:05.544Z,6.47
2022-11-02T00:24:33.449Z,5.75
2022-11-02T00:27:07.530Z,5.68
2022-11-02T00:29:41.675Z,5.47
2022-11-02T00:32:08.859Z,5.20
2022-11-02T00:34:42.523Z,5.22
2022-11-02T00:37:09.640Z,5.28
2022-11-02T00:42:31.468Z,5.50
2022-11-02T00:45:05.629Z,5.82
2022-11-02T00:47:32.773Z,5.33
2022-11-02T00:50:06.524Z,5.43
2022-11-02T00:52:40.511Z,5.80
2022-11-02T00:55:15.544Z,6.38
2022-11-02T01:00:17.579Z,6.28
2022-11-02T01:05:24.664Z,5.57
2022-11-02T01:07:59.520Z,6.00
2022-11-02T01:10:26.579Z,6.15
2022-11-02T01:13:00.560Z,5.70
2022-11-02T01:15:27.893Z,7.25
2022-11-02T01:18:01.761Z,6.22
2022-11-02T01:20:29.074Z,6.40
2022-11-02T01:23:05.479Z,6.15
2022-11-02T01:25:39.520Z,7.20
2022-11-02T01:28:13.574Z,5.65
2022-11-02T01:30:40.840Z,6.45
2022-11-02T01:33:14.524Z,6.93
2022-11-02T01:35:41.649Z,6.50
2022-11-02T01:38:15.598Z,8.10
2022-11-02T01:40:49.567Z,5.97
2022-11-02T01:43:26.598Z,7.70
2022-11-02T01:46:08.617Z,7.82
2022-11-02T01:49:10.627Z,8.10
2022-11-02T01:52:04.801Z,8.13
2022-11-02T01:54:44.548Z,7.45
2022-11-02T01:57:17.328Z,6.80
2022-11-02T01:59:57.607Z,7.35
2022-11-02T02:02:35.250Z,7.38
2022-11-02T02:05:17.647Z,7.57
2022-11-02T02:07:45.357Z,8.07
2022-11-02T02:10:19.557Z,7.10
2022-11-02T02:12:48.034Z,7.13
2022-11-02T02:15:21.539Z,7.70
2022-11-02T02:18:04.209Z,7.80
2022-11-02T02:20:56.544Z,7.75
2022-11-02T02:24:07.644Z,7.20
2022-11-02T02:26:50.525Z,6.47
2022-11-02T02:29:29.164Z,6.75
2022-11-02T02:32:11.565Z,6.63
2022-11-02T02:34:52.055Z,7.75
2022-11-02T02:37:44.555Z,7.75
2022-11-02T02:40:31.839Z,7.20
2022-11-02T02:43:17.642Z,9.13
2022-11-02T02:45:56.549Z,7.88
2022-11-02T02:48:32.584Z,7.65
2022-11-02T02:51:22.601Z,7.60
2022-11-02T02:53:55.036Z,8.05
2022-11-02T02:56:32.607Z,7.90
2022-11-02T02:59:22.494Z,8.07
2022-11-02T03:02:03.709Z,8.10
2022-11-02T03:04:40.345Z,8.38
2022-11-02T03:07:19.619Z,8.60
2022-11-02T03:09:52.661Z,7.75
2022-11-02T03:12:57.592Z,8.10
2022-11-02T03:15:37.825Z,8.13
2022-11-02T03:18:34.575Z,8.15
2022-11-02T03:21:20.568Z,10.35
2022-11-02T03:24:06.149Z,9.27
2022-11-02T03:26:50.555Z,9.38
2022-11-02T03:29:36.844Z,9.52
2022-11-02T03:32:26.584Z,9.35
2022-11-02T03:34:58.454Z,8.15
2022-11-02T03:37:52.541Z,7.88
2022-11-02T03:40:33.654Z,9.15
2022-11-02T03:43:09.607Z,9.52
2022-11-02T03:45:47.538Z,9.98
2022-11-02T03:48:22.610Z,10.27
2022-11-02T03:53:41.584Z,9.52
2022-11-02T03:56:14.699Z,9.40
2022-11-02T03:58:48.594Z,9.02
2022-11-02T04:01:24.814Z,8.27
2022-11-02T04:04:04.585Z,9.45
2022-11-02T04:06:39.650Z,8.27
2022-11-02T04:11:58.570Z,9.50
2022-11-02T04:14:48.627Z,8.35
2022-11-02T04:17:40.599Z,8.73
2022-11-02T04:20:08.720Z,8.77
2022-11-02T04:23:05.580Z,8.60
2022-11-02T04:25:45.813Z,8.63
2022-11-02T04:28:13.029Z,8.60
2022-11-02T04:30:46.628Z,9.07
2022-11-02T04:33:32.529Z,8.05
2022-11-02T04:36:10.618Z,8.75
2022-11-02T04:38:40.681Z,8.93
2022-11-02T04:41:41.592Z,9.10
2022-11-02T04:44:09.869Z,8.90
2022-11-02T04:46:45.614Z,9.40
2022-11-02T04:49:12.840Z,9.23
2022-11-02T04:51:49.856Z,9.07
2022-11-02T04:54:23.595Z,8.95
2022-11-02T04:56:50.646Z,8.88
2022-11-02T04:59:24.708Z,8.30
2022-11-02T05:01:58.847Z,8.82
2022-11-02T05:04:39.661Z,8.43
2022-11-02T05:07:14.585Z,8.95
2022-11-02T05:09:50.630Z,9.88
2022-11-02T05:12:29.061Z,8.50
2022-11-02T05:15:02.581Z,8.60
2022-11-02T05:17:29.666Z,10.15
2022-11-02T05:20:03.705Z,7.30
2022-11-02T05:22:31.902Z,8.10
2022-11-02T05:25:05.565Z,8.15
2022-11-02T05:27:39.605Z,7.88
2022-11-02T05:30:07.419Z,6.95
2022-11-02T05:32:41.636Z,8.55
2022-11-02T05:35:09.357Z,8.50
2022-11-02T05:37:43.579Z,8.73
2022-11-02T05:40:11.380Z,8.07
2022-11-02T05:42:44.611Z,6.25
2022-11-02T05:45:22.050Z,6.95
2022-11-02T05:47:51.880Z,5.78
2022-11-02T05:50:25.592Z,6.18
2022-11-02T05:52:53.096Z,6.13
2022-11-02T05:55:26.586Z,6.68
2022-11-02T05:58:01.557Z,6.15
2022-11-02T06:00:34.785Z,5.47
2022-11-02T06:03:15.611Z,6.60
2022-11-02T06:05:49.775Z,7.03
2022-11-02T06:08:16.983Z,7.03
2022-11-02T06:10:51.699Z,6.68
2022-11-02T06:13:18.837Z,6.07
2022-11-02T06:15:52.614Z,6.80
2022-11-02T06:18:19.716Z,6.18
2022-11-02T06:20:53.622Z,6.40
2022-11-02T06:23:20.779Z,5.95
2022-11-02T06:26:02.605Z,7.25
2022-11-02T06:28:31.281Z,6.22
2022-11-02T06:31:05.610Z,7.20
2022-11-02T06:33:32.944Z,6.72
2022-11-02T06:36:06.589Z,5.60
2022-11-02T06:38:33.694Z,6.35
2022-11-02T06:41:10.755Z,7.85
2022-11-02T06:43:45.634Z,7.43
2022-11-02T06:46:12.994Z,7.75
2022-11-02T06:48:46.574Z,7.53
2022-11-02T06:51:13.696Z,6.88
2022-11-02T06:53:47.633Z,6.72
2022-11-02T06:56:15.233Z,7.10
2022-11-02T06:58:48.592Z,7.22
2022-11-02T07:01:35.736Z,6.85
2022-11-02T07:04:10.737Z,8.15
2022-11-02T07:06:37.886Z,6.93
2022-11-02T07:09:11.611Z,7.10
2022-11-02T07:11:38.695Z,6.53
2022-11-02T07:14:12.626Z,7.03
2022-11-02T07:16:39.766Z,6.20
2022-11-02T07:19:16.663Z,7.38
2022-11-02T07:21:46.691Z,7.28
2022-11-02T07:24:21.625Z,7.47
2022-11-02T07:26:51.594Z,5.55
2022-11-02T07:29:25.660Z,6.65
2022-11-02T07:31:52.724Z,6.07
2022-11-02T07:34:26.850Z,6.53
2022-11-02T07:36:55.804Z,7.07
2022-11-02T07:39:29.645Z,6.82
2022-11-02T07:41:56.750Z,6.45
2022-11-02T07:44:30.632Z,6.45
2022-11-02T07:46:57.977Z,6.65
2022-11-02T07:49:31.743Z,7.22
2022-11-02T07:51:58.874Z,5.70
2022-11-02T07:54:32.574Z,6.35
2022-11-02T07:57:06.646Z,6.45
2022-11-02T07:59:40.649Z,6.38
2022-11-02T08:02:27.660Z,6.63
2022-11-02T08:04:54.724Z,5.75
2022-11-02T08:07:29.695Z,5.57
2022-11-02T08:10:03.637Z,5.70
2022-11-02T08:12:30.836Z,5.53
2022-11-02T08:15:00.377Z,5.63
2022-11-02T08:17:36.658Z,5.05
2022-11-02T08:20:10.647Z,4.70
2022-11-02T08:22:38.933Z,5.18
2022-11-02T08:25:13.683Z,4.47
2022-11-02T08:27:40.753Z,4.03
2022-11-02T08:30:15.669Z,4.57
2022-11-02T08:32:43.092Z,4.22
2022-11-02T08:35:16.682Z,4.05
2022-11-02T08:37:43.858Z,4.03
2022-11-02T08:40:18.619Z,3.65
2022-11-02T08:42:45.861Z,4.13
2022-11-02T08:45:19.636Z,5.28
2022-11-02T08:47:46.793Z,5.00
2022-11-02T08:50:20.710Z,5.15
2022-11-02T08:52:47.905Z,4.88
2022-11-02T08:55:21.621Z,5.75
2022-11-02T08:58:00.674Z,5.15
2022-11-02T09:00:37.712Z,5.90
2022-11-02T09:03:25.081Z,5.70
2022-11-02T09:06:02.090Z,6.63
2022-11-02T09:08:36.633Z,5.03
2022-11-02T09:11:04.224Z,5.30
2022-11-02T09:13:37.707Z,4.90
2022-11-02T09:16:08.838Z,4.63
2022-11-02T09:18:43.611Z,4.45
2022-11-02T09:21:17.665Z,4.85
2022-11-02T09:23:48.551Z,4.80
2022-11-02T09:26:22.681Z,4.60
2022-11-02T09:28:56.669Z,5.03
2022-11-02T09:31:23.971Z,5.25
2022-11-02T09:33:57.687Z,5.45
2022-11-02T09:36:24.840Z,4.78
2022-11-02T09:38:58.765Z,3.83
2022-11-02T09:41:47.633Z,3.95
2022-11-02T09:44:31.634Z,4.25
2022-11-02T09:47:49.627Z,4.68
2022-11-02T09:49:52.651Z,4.15
2022-11-02T09:52:33.345Z,4.13
2022-11-02T09:55:17.756Z,4.38
2022-11-02T09:57:55.785Z,3.88
2022-11-02T10:00:29.734Z,3.33
2022-11-02T10:03:41.665Z,3.25
2022-11-02T10:06:15.715Z,3.90
2022-11-02T10:08:53.602Z,3.45
2022-11-02T10:11:46.301Z,3.63
2022-11-02T10:14:39.251Z,2.88
2022-11-02T10:17:28.657Z,4.13
2022-11-02T10:20:03.896Z,3.58
2022-11-02T10:22:46.677Z,4.40
2022-11-02T10:25:16.661Z,3.65
2022-11-02T10:27:52.718Z,3.78
2022-11-02T10:30:21.726Z,3.50
2022-11-02T10:32:59.687Z,3.33
2022-11-02T10:35:57.279Z,2.78
2022-11-02T10:38:51.717Z,3.20
2022-11-02T10:41:49.698Z,2.95
2022-11-02T10:44:48.052Z,3.60
2022-11-02T10:47:24.547Z,2.15
2022-11-02T10:50:16.659Z,3.08
2022-11-02T10:52:46.148Z,1.85
2022-11-02T10:56:18.746Z,2.08
2022-11-02T10:59:09.651Z,1.88
2022-11-02T11:02:00.750Z,1.60
2022-11-02T11:04:30.073Z,1.85
2022-11-02T11:07:04.666Z,1.50
2022-11-02T11:09:57.477Z,2.35
2022-11-02T11:12:39.718Z,1.88
2022-11-02T11:21:03.779Z,1.85
2022-11-02T11:23:31.001Z,1.80
2022-11-02T11:26:33.677Z,2.38
2022-11-02T11:29:00.791Z,1.90
2022-11-02T11:31:34.641Z,2.28
2022-11-02T11:34:10.691Z,2.53
2022-11-02T11:36:37.933Z,1.98
2022-11-02T11:39:37.007Z,2.20
2022-11-02T11:42:18.413Z,2.30
2022-11-02T11:45:12.807Z,2.22
2022-11-02T11:47:42.831Z,2.00
2022-11-02T11:50:28.168Z,2.25
2022-11-02T11:53:20.817Z,1.92
2022-11-02T11:55:59.630Z,2.35
2022-11-02T11:59:10.685Z,1.77
2022-11-02T12:01:53.852Z,2.30
2022-11-02T12:04:39.704Z,1.90
2022-11-02T12:07:09.549Z,2.13
2022-11-02T12:09:48.685Z,2.00
2022-11-02T12:12:34.240Z,1.67
2022-11-02T12:15:30.749Z,1.50
2022-11-02T12:18:20.019Z,1.90
2022-11-02T12:20:55.686Z,1.95
2022-11-02T12:23:31.715Z,1.58
2022-11-02T12:26:21.947Z,1.45
2022-11-02T12:29:18.682Z,1.42
2022-11-02T12:32:00.864Z,1.30
2022-11-02T12:35:28.558Z,1.30
2022-11-02T12:38:37.715Z,1.42
2022-11-02T12:41:18.673Z,1.30
2022-11-02T12:44:01.714Z,1.10
2022-11-02T12:46:49.200Z,1.15
2022-11-02T12:49:49.669Z,1.00
2022-11-02T12:52:26.677Z,0.90
2022-11-02T12:55:03.060Z,0.65
2022-11-02T12:57:42.843Z,1.08
2022-11-02T13:00:26.267Z,0.90
2022-11-02T13:03:15.650Z,1.45
2022-11-02T13:05:54.251Z,0.95
2022-11-02T13:08:56.708Z,0.98
2022-11-02T13:11:34.460Z,0.73
2022-11-02T13:14:15.562Z,0.90
2022-11-02T13:17:09.874Z,0.90
2022-11-02T13:20:08.669Z,0.70
2022-11-02T13:22:41.244Z,0.57
2022-11-02T13:25:29.735Z,0.55
2022-11-02T13:28:17.480Z,0.52
2022-11-02T13:30:52.751Z,0.70
2022-11-02T13:33:45.995Z,0.50
2022-11-02T13:36:20.693Z,0.88
2022-11-02T13:39:00.751Z,0.90
2022-11-02T13:41:48.733Z,1.10
2022-11-02T13:44:36.712Z,0.75
2022-11-02T13:47:36.249Z,0.88
2022-11-02T13:50:11.794Z,0.90
2022-11-02T13:52:41.064Z,0.85
2022-11-02T13:55:22.759Z,0.43
2022-11-02T13:57:59.141Z,1.00
2022-11-02T14:00:39.914Z,1.17
2022-11-02T14:03:23.702Z,1.35
2022-11-02T14:05:58.151Z,0.75
2022-11-02T14:08:40.663Z,0.73
2022-11-02T14:11:17.757Z,1.00
2022-11-02T14:14:10.714Z,1.02
2022-11-02T14:16:56.759Z,0.63
2022-11-02T14:19:55.804Z,0.70
2022-11-02T14:22:29.726Z,0.73
2022-11-02T14:25:15.721Z,0.63
2022-11-02T14:27:49.764Z,0.60
2022-11-02T14:30:51.838Z,0.55
2022-11-02T14:33:49.504Z,0.50
2022-11-02T14:36:22.717Z,0.50
2022-11-02T14:39:14.317Z,0.40
2022-11-02T14:42:30.751Z,0.60
2022-11-02T14:45:14.756Z,0.55
2022-11-02T14:47:42.155Z,0.38
2022-11-02T14:50:26.756Z,0.43
2022-11-02T14:53:35.716Z,0.77
2022-11-02T14:56:03.941Z,0.50
2022-11-02T14:58:54.744Z,0.70
2022-11-02T15:01:22.469Z,0.38
2022-11-02T15:04:02.727Z,0.40
2022-11-02T15:06:32.203Z,0.52
2022-11-02T15:09:07.811Z,0.30
2022-11-02T15:11:54.696Z,0.40
2022-11-02T15:14:38.100Z,0.40
2022-11-02T15:17:17.697Z,0.30
2022-11-02T15:19:47.282Z,0.32
2022-11-02T15:22:38.725Z,0.70
2022-11-02T15:25:16.688Z,0.40
2022-11-02T15:27:51.700Z,0.30
2022-11-02T15:33:06.958Z,0.40
2022-11-02T15:35:37.367Z,0.40
2022-11-02T15:38:24.098Z,0.57
2022-11-02T15:41:29.705Z,0.40
2022-11-02T15:44:25.732Z,0.50
2022-11-02T15:47:09.781Z,0.40
2022-11-02T15:49:50.782Z,0.55
2022-11-02T15:53:09.049Z,0.50
2022-11-02T15:56:19.701Z,0.40
2022-11-02T15:59:17.735Z,0.50
2022-11-02T16:01:58.961Z,0.57
2022-11-02T16:04:33.786Z,0.60
2022-11-02T16:07:12.766Z,0.73
2022-11-02T16:09:40.818Z,0.68
2022-11-02T16:12:30.800Z,0.70
2022-11-02T16:15:18.767Z,0.50
2022-11-02T16:17:50.440Z,0.63
2022-11-02T16:20:36.744Z,0.65
2022-11-02T16:23:05.785Z,0.77
2022-11-02T16:25:55.798Z,0.77
2022-11-02T16:28:32.775Z,0.60
2022-11-02T16:31:12.460Z,0.63
2022-11-02T16:33:58.768Z,0.60
2022-11-02T16:36:32.191Z,0.90
2022-11-02T16:39:23.741Z,0.90
2022-11-02T16:41:52.735Z,0.80
2022-11-02T16:44:46.994Z,0.80
2022-11-02T16:47:18.954Z,0.75
2022-11-02T16:49:58.745Z,0.90
2022-11-02T16:52:34.851Z,1.25
2022-11-02T16:55:08.736Z,1.33
2022-11-02T16:57:45.468Z,1.52
2022-11-02T17:00:25.721Z,1.38
2022-11-02T17:02:59.950Z,1.63
2022-11-02T17:05:40.710Z,1.57
2022-11-02T17:08:21.150Z,2.25
2022-11-02T17:10:56.718Z,2.10
2022-11-02T17:13:27.120Z,2.47
2022-11-02T17:16:03.760Z,2.55
2022-11-02T17:18:30.951Z,2.33
2022-11-02T17:21:19.732Z,2.20
2022-11-02T17:23:54.800Z,2.40
2022-11-02T17:29:03.850Z,3.38
2022-11-02T17:31:44.822Z,3.47
2022-11-02T17:34:27.130Z,4.00
2022-11-02T17:36:54.324Z,4.75
2022-11-02T17:39:27.762Z,5.68
2022-11-02T17:42:15.355Z,3.92
2022-11-02T17:44:51.790Z,4.60
2022-11-02T17:47:19.129Z,3.90
2022-11-02T17:49:54.121Z,3.55
2022-11-02T17:52:21.599Z,3.90
2022-11-02T17:54:54.845Z,3.55
2022-11-02T17:57:28.805Z,4.13
2022-11-02T18:00:02.790Z,3.85
2022-11-02T18:02:37.130Z,3.88
2022-11-02T18:05:45.118Z,3.13
2022-11-02T18:08:15.919Z,3.97
2022-11-02T18:11:01.819Z,3.70
2022-11-02T18:13:28.966Z,3.17
2022-11-02T18:16:03.765Z,3.10
2022-11-02T18:18:30.837Z,3.08
2022-11-02T18:21:04.784Z,3.80
2022-11-02T18:23:33.234Z,3.05
2022-11-02T18:26:06.815Z,2.75
2022-11-02T18:28:34.984Z,3.25
2022-11-02T18:31:08.833Z,3.33
2022-11-02T18:33:36.027Z,3.95
2022-11-02T18:36:14.749Z,4.07
2022-11-02T18:38:42.461Z,3.75
2022-11-02T18:41:37.428Z,4.15
2022-11-02T18:44:11.971Z,4.93
2022-11-02T18:46:48.778Z,4.68
2022-11-02T18:49:15.852Z,5.20
2022-11-02T18:51:50.746Z,4.82
2022-11-02T18:54:18.246Z,4.90
2022-11-02T18:56:53.809Z,4.97
2022-11-02T18:59:20.989Z,5.70
2022-11-02T19:01:54.869Z,5.72
2022-11-02T19:04:35.929Z,5.70
2022-11-02T19:07:21.888Z,5.80
2022-11-02T19:09:57.419Z,6.22
2022-11-02T19:12:29.951Z,6.10
2022-11-02T19:15:03.757Z,5.97
2022-11-02T19:17:30.945Z,5.82
2022-11-02T19:20:04.869Z,5.25
2022-11-02T19:22:32.049Z,5.30
2022-11-02T19:25:07.765Z,6.28
2022-11-02T19:27:34.823Z,5.60
2022-11-02T19:30:11.819Z,5.50
2022-11-02T19:32:38.874Z,5.32
2022-11-02T19:35:12.836Z,4.22
2022-11-02T19:37:39.866Z,4.68
2022-11-02T19:40:13.771Z,5.20
2022-11-02T19:42:41.570Z,4.97
2022-11-02T19:45:22.829Z,4.43
2022-11-02T19:47:55.992Z,4.25
2022-11-02T19:50:30.945Z,4.80
2022-11-02T19:53:06.952Z,4.95
2022-11-02T19:55:34.261Z,6.63
2022-11-02T19:58:08.088Z,5.25
2022-11-02T20:00:35.370Z,5.93
2022-11-02T20:03:09.074Z,5.40
2022-11-02T20:05:37.329Z,5.45
2022-11-02T20:08:11.839Z,5.82
2022-11-02T20:10:38.885Z,5.82
2022-11-02T20:13:12.844Z,4.85
2022-11-02T20:15:40.691Z,6.28
2022-11-02T20:18:19.387Z,4.65
2022-11-02T20:20:47.024Z,5.18
2022-11-02T20:23:20.767Z,4.65
2022-11-02T20:25:48.421Z,4.88
2022-11-02T20:28:21.795Z,5.55
2022-11-02T20:30:48.866Z,5.15
2022-11-02T20:33:22.923Z,5.05
2022-11-02T20:35:56.869Z,4.53
2022-11-02T20:38:24.090Z,4.15
2022-11-02T20:40:57.864Z,3.78
2022-11-02T20:43:31.886Z,4.13
2022-11-02T20:46:31.591Z,3.83
2022-11-02T20:49:13.729Z,3.35
2022-11-02T20:51:51.223Z,3.20
2022-11-02T20:54:25.811Z,3.25
2022-11-02T20:56:59.814Z,2.93
2022-11-02T20:59:27.434Z,3.42
2022-11-02T21:02:00.847Z,3.03
2022-11-02T21:04:47.828Z,3.53
2022-11-02T21:07:14.989Z,3.58
2022-11-02T21:09:42.100Z,3.22
2022-11-02T21:12:43.633Z,3.03
2022-11-02T21:15:10.884Z,2.88
2022-11-02T21:17:45.610Z,3.05
2022-11-02T21:20:33.646Z,3.25
2022-11-02T21:23:11.784Z,2.75
2022-11-02T21:25:45.870Z,3.03
2022-11-02T21:28:13.045Z,3.15
2022-11-02T21:30:46.829Z,3.10
2022-11-02T21:33:13.925Z,2.85
2022-11-02T21:35:47.846Z,2.75
2022-11-02T21:38:21.843Z,2.38
2022-11-02T21:40:48.914Z,2.83
2022-11-02T21:43:22.824Z,3.17
2022-11-02T21:45:54.686Z,2.88
2022-11-02T21:51:06.311Z,2.83
2022-11-02T21:53:41.792Z,2.75
2022-11-02T21:56:14.783Z,2.42
2022-11-02T21:58:48.791Z,2.72
2022-11-02T22:01:37.462Z,3.38
2022-11-02T22:04:19.793Z,3.13
2022-11-02T22:06:53.932Z,3.15
2022-11-02T22:09:28.819Z,2.45
2022-11-02T22:12:21.809Z,2.63
2022-11-02T22:14:48.982Z,3.03
2022-11-02T22:17:47.972Z,2.17
2022-11-02T22:20:10.383Z,3.10
2022-11-02T22:22:43.812Z,2.42
2022-11-02T22:25:17.871Z,2.90
2022-11-02T22:27:51.832Z,3.15
2022-11-02T22:30:26.803Z,3.00
2022-11-02T22:32:54.919Z,3.10
2022-11-02T22:35:28.879Z,3.38
2022-11-02T22:38:20.827Z,3.03
2022-11-02T22:40:48.511Z,3.83
2022-11-02T22:43:21.751Z,3.92
2022-11-02T22:45:48.841Z,3.42
2022-11-02T22:48:22.813Z,3.40
2022-11-02T22:50:56.929Z,3.70
2022-11-02T22:53:28.838Z,3.72
2022-11-02T22:56:09.934Z,3.47
2022-11-02T22:58:37.406Z,3.33
2022-11-02T23:01:11.881Z,3.35
2022-11-02T23:03:59.986Z,3.30
2022-11-02T23:06:33.806Z,3.35
2022-11-02T23:09:01.666Z,3.25
2022-11-02T23:11:42.893Z,2.97
2022-11-02T23:14:15.529Z,3.28
2022-11-02T23:16:54.883Z,3.45
2022-11-02T23:19:31.268Z,3.00
2022-11-02T23:22:17.332Z,2.88
2022-11-02T23:25:13.072Z,3.00
2022-11-02T23:28:12.879Z,3.08
2022-11-02T23:31:05.906Z,3.17
2022-11-02T23:33:42.834Z,3.55
2022-11-02T23:36:19.814Z,3.25
2022-11-02T23:39:07.454Z,3.03
2022-11-02T23:41:45.867Z,3.40
2022-11-02T23:44:20.849Z,3.70
2022-11-02T23:46:49.331Z,3.30
2022-11-02T23:49:24.823Z,3.55
2022-11-02T23:52:10.520Z,3.03
2022-11-02T23:55:02.799Z,3.60
2022-11-02T23:57:30.618Z,3.53
